sensor_id;sensor_type;location;lat;lon;timestamp;temperature;humidity
73322;DHT22;61549;37.044;22.128;2023-02-10T00:00:08;11.60;37.50
73322;DHT22;61549;37.044;22.128;2023-02-10T00:02:34;11.40;37.20
73322;DHT22;61549;37.044;22.128;2023-02-10T00:05:00;11.30;37.60
73322;DHT22;61549;37.044;22.128;2023-02-10T00:07:26;11.40;37.90
73322;DHT22;61549;37.044;22.128;2023-02-10T00:09:52;11.30;38.00
73322;DHT22;61549;37.044;22.128;2023-02-10T00:12:18;11.30;37.90
73322;DHT22;61549;37.044;22.128;2023-02-10T00:14:43;11.30;37.80
73322;DHT22;61549;37.044;22.128;2023-02-10T00:17:09;11.00;38.30
73322;DHT22;61549;37.044;22.128;2023-02-10T00:19:35;11.00;39.10
73322;DHT22;61549;37.044;22.128;2023-02-10T00:22:02;10.80;39.10
73322;DHT22;61549;37.044;22.128;2023-02-10T00:24:28;10.90;39.30
73322;DHT22;61549;37.044;22.128;2023-02-10T00:26:54;11.00;39.00
73322;DHT22;61549;37.044;22.128;2023-02-10T00:29:20;11.10;39.00
73322;DHT22;61549;37.044;22.128;2023-02-10T00:31:47;11.20;38.70
73322;DHT22;61549;37.044;22.128;2023-02-10T00:34:15;11.10;39.10
73322;DHT22;61549;37.044;22.128;2023-02-10T00:36:42;11.20;39.30
73322;DHT22;61549;37.044;22.128;2023-02-10T00:39:20;11.10;38.80
73322;DHT22;61549;37.044;22.128;2023-02-10T00:41:46;11.00;39.10
73322;DHT22;61549;37.044;22.128;2023-02-10T00:44:11;11.00;39.80
73322;DHT22;61549;37.044;22.128;2023-02-10T00:46:37;11.10;39.20
73322;DHT22;61549;37.044;22.128;2023-02-10T00:49:10;11.10;39.10
73322;DHT22;61549;37.044;22.128;2023-02-10T00:51:37;10.90;39.10
73322;DHT22;61549;37.044;22.128;2023-02-10T00:54:03;11.00;39.30
73322;DHT22;61549;37.044;22.128;2023-02-10T00:56:29;11.00;39.60
73322;DHT22;61549;37.044;22.128;2023-02-10T00:58:55;10.90;39.50
73322;DHT22;61549;37.044;22.128;2023-02-10T01:01:21;10.90;39.70
73322;DHT22;61549;37.044;22.128;2023-02-10T01:03:46;10.90;39.20
73322;DHT22;61549;37.044;22.128;2023-02-10T01:06:14;11.10;39.40
73322;DHT22;61549;37.044;22.128;2023-02-10T01:08:40;11.20;39.10
73322;DHT22;61549;37.044;22.128;2023-02-10T01:11:09;11.10;38.90
73322;DHT22;61549;37.044;22.128;2023-02-10T01:13:36;11.10;38.80
73322;DHT22;61549;37.044;22.128;2023-02-10T01:16:08;10.90;39.10
73322;DHT22;61549;37.044;22.128;2023-02-10T01:18:36;10.80;39.50
73322;DHT22;61549;37.044;22.128;2023-02-10T01:21:11;10.90;39.40
73322;DHT22;61549;37.044;22.128;2023-02-10T01:23:37;10.90;39.50
73322;DHT22;61549;37.044;22.128;2023-02-10T01:26:03;10.90;39.40
73322;DHT22;61549;37.044;22.128;2023-02-10T01:28:29;10.90;39.20
73322;DHT22;61549;37.044;22.128;2023-02-10T01:30:55;10.90;39.30
73322;DHT22;61549;37.044;22.128;2023-02-10T01:33:21;10.90;39.40
73322;DHT22;61549;37.044;22.128;2023-02-10T01:35:47;10.80;39.70
73322;DHT22;61549;37.044;22.128;2023-02-10T01:38:13;10.60;39.80
73322;DHT22;61549;37.044;22.128;2023-02-10T01:40:39;10.60;40.00
73322;DHT22;61549;37.044;22.128;2023-02-10T01:43:14;10.60;39.90
73322;DHT22;61549;37.044;22.128;2023-02-10T01:45:40;10.70;39.60
73322;DHT22;61549;37.044;22.128;2023-02-10T01:48:08;10.70;39.80
73322;DHT22;61549;37.044;22.128;2023-02-10T01:50:57;10.90;39.70
73322;DHT22;61549;37.044;22.128;2023-02-10T01:53:25;10.80;39.40
73322;DHT22;61549;37.044;22.128;2023-02-10T01:55:53;10.70;39.60
73322;DHT22;61549;37.044;22.128;2023-02-10T01:58:25;10.80;39.60
73322;DHT22;61549;37.044;22.128;2023-02-10T02:00:52;10.90;39.70
73322;DHT22;61549;37.044;22.128;2023-02-10T02:03:18;10.90;39.70
73322;DHT22;61549;37.044;22.128;2023-02-10T02:05:44;10.90;39.70
73322;DHT22;61549;37.044;22.128;2023-02-10T02:08:14;11.00;39.60
73322;DHT22;61549;37.044;22.128;2023-02-10T02:16:48;11.00;39.60
73322;DHT22;61549;37.044;22.128;2023-02-10T02:25:35;10.90;40.10
73322;DHT22;61549;37.044;22.128;2023-02-10T02:28:34;11.00;40.10
73322;DHT22;61549;37.044;22.128;2023-02-10T02:39:51;11.10;39.90
73322;DHT22;61549;37.044;22.128;2023-02-10T02:42:23;11.10;39.90
73322;DHT22;61549;37.044;22.128;2023-02-10T02:53:09;11.10;40.50
73322;DHT22;61549;37.044;22.128;2023-02-10T03:01:23;11.10;41.00
73322;DHT22;61549;37.044;22.128;2023-02-10T03:03:54;11.10;40.90
73322;DHT22;61549;37.044;22.128;2023-02-10T03:06:22;11.20;41.00
73322;DHT22;61549;37.044;22.128;2023-02-10T03:08:48;11.10;41.00
73322;DHT22;61549;37.044;22.128;2023-02-10T03:11:14;11.10;41.00
73322;DHT22;61549;37.044;22.128;2023-02-10T03:13:40;11.20;40.70
73322;DHT22;61549;37.044;22.128;2023-02-10T03:16:06;11.10;41.00
73322;DHT22;61549;37.044;22.128;2023-02-10T03:18:43;11.20;40.60
73322;DHT22;61549;37.044;22.128;2023-02-10T03:21:09;11.20;40.80
73322;DHT22;61549;37.044;22.128;2023-02-10T03:23:34;11.20;41.70
73322;DHT22;61549;37.044;22.128;2023-02-10T03:26:00;11.20;41.40
73322;DHT22;61549;37.044;22.128;2023-02-10T03:28:27;11.20;41.40
73322;DHT22;61549;37.044;22.128;2023-02-10T03:30:53;11.10;41.40
73322;DHT22;61549;37.044;22.128;2023-02-10T03:33:20;11.00;41.60
73322;DHT22;61549;37.044;22.128;2023-02-10T03:35:46;10.90;42.20
73322;DHT22;61549;37.044;22.128;2023-02-10T03:38:13;10.90;41.90
73322;DHT22;61549;37.044;22.128;2023-02-10T03:40:40;11.00;41.60
73322;DHT22;61549;37.044;22.128;2023-02-10T03:43:05;11.00;41.70
73322;DHT22;61549;37.044;22.128;2023-02-10T03:45:31;11.00;41.30
73322;DHT22;61549;37.044;22.128;2023-02-10T03:47:57;11.00;41.50
73322;DHT22;61549;37.044;22.128;2023-02-10T03:50:25;11.00;41.70
73322;DHT22;61549;37.044;22.128;2023-02-10T03:52:51;11.00;41.10
73322;DHT22;61549;37.044;22.128;2023-02-10T03:55:18;11.10;41.30
73322;DHT22;61549;37.044;22.128;2023-02-10T03:57:45;11.00;41.20
73322;DHT22;61549;37.044;22.128;2023-02-10T04:00:12;11.00;41.20
73322;DHT22;61549;37.044;22.128;2023-02-10T04:02:38;10.80;41.10
73322;DHT22;61549;37.044;22.128;2023-02-10T04:07:48;11.00;41.00
73322;DHT22;61549;37.044;22.128;2023-02-10T04:10:14;11.00;40.90
73322;DHT22;61549;37.044;22.128;2023-02-10T04:12:40;11.10;40.60
73322;DHT22;61549;37.044;22.128;2023-02-10T04:15:06;11.00;40.00
73322;DHT22;61549;37.044;22.128;2023-02-10T04:17:33;11.00;40.30
73322;DHT22;61549;37.044;22.128;2023-02-10T04:19:59;10.90;40.30
73322;DHT22;61549;37.044;22.128;2023-02-10T04:22:25;10.80;40.70
73322;DHT22;61549;37.044;22.128;2023-02-10T04:24:50;10.90;40.70
73322;DHT22;61549;37.044;22.128;2023-02-10T04:27:16;10.90;40.60
73322;DHT22;61549;37.044;22.128;2023-02-10T04:29:42;10.90;40.50
73322;DHT22;61549;37.044;22.128;2023-02-10T04:32:08;10.90;40.80
73322;DHT22;61549;37.044;22.128;2023-02-10T04:34:34;10.90;40.70
73322;DHT22;61549;37.044;22.128;2023-02-10T04:37:00;10.80;40.70
73322;DHT22;61549;37.044;22.128;2023-02-10T04:39:26;10.80;41.10
73322;DHT22;61549;37.044;22.128;2023-02-10T04:41:52;10.90;40.80
73322;DHT22;61549;37.044;22.128;2023-02-10T04:44:18;11.00;40.60
73322;DHT22;61549;37.044;22.128;2023-02-10T04:46:43;11.00;40.50
73322;DHT22;61549;37.044;22.128;2023-02-10T04:49:09;11.00;40.10
73322;DHT22;61549;37.044;22.128;2023-02-10T04:51:35;11.00;40.40
73322;DHT22;61549;37.044;22.128;2023-02-10T04:54:01;11.10;40.30
73322;DHT22;61549;37.044;22.128;2023-02-10T04:56:27;11.00;39.90
73322;DHT22;61549;37.044;22.128;2023-02-10T04:58:52;11.20;39.90
73322;DHT22;61549;37.044;22.128;2023-02-10T05:01:18;11.20;39.70
73322;DHT22;61549;37.044;22.128;2023-02-10T05:03:44;10.90;39.90
73322;DHT22;61549;37.044;22.128;2023-02-10T05:06:12;10.80;40.30
73322;DHT22;61549;37.044;22.128;2023-02-10T05:08:39;10.80;40.50
73322;DHT22;61549;37.044;22.128;2023-02-10T05:11:12;10.70;40.50
73322;DHT22;61549;37.044;22.128;2023-02-10T05:13:38;10.80;40.40
73322;DHT22;61549;37.044;22.128;2023-02-10T05:16:09;10.80;40.20
73322;DHT22;61549;37.044;22.128;2023-02-10T05:18:36;10.90;40.20
73322;DHT22;61549;37.044;22.128;2023-02-10T05:21:02;11.00;40.10
73322;DHT22;61549;37.044;22.128;2023-02-10T05:23:29;10.90;40.20
73322;DHT22;61549;37.044;22.128;2023-02-10T05:25:54;11.00;40.20
73322;DHT22;61549;37.044;22.128;2023-02-10T05:28:20;11.10;39.80
73322;DHT22;61549;37.044;22.128;2023-02-10T05:30:47;11.10;39.70
73322;DHT22;61549;37.044;22.128;2023-02-10T05:33:13;11.20;39.80
73322;DHT22;61549;37.044;22.128;2023-02-10T05:35:39;11.10;39.50
73322;DHT22;61549;37.044;22.128;2023-02-10T05:38:05;11.10;39.60
73322;DHT22;61549;37.044;22.128;2023-02-10T05:40:31;11.00;39.30
73322;DHT22;61549;37.044;22.128;2023-02-10T05:42:57;10.90;39.60
73322;DHT22;61549;37.044;22.128;2023-02-10T05:45:24;10.90;40.20
73322;DHT22;61549;37.044;22.128;2023-02-10T05:47:50;10.90;41.00
73322;DHT22;61549;37.044;22.128;2023-02-10T05:50:17;11.00;40.30
73322;DHT22;61549;37.044;22.128;2023-02-10T05:52:43;11.10;40.20
73322;DHT22;61549;37.044;22.128;2023-02-10T05:55:09;11.30;39.80
73322;DHT22;61549;37.044;22.128;2023-02-10T05:57:53;11.20;39.10
73322;DHT22;61549;37.044;22.128;2023-02-10T06:00:19;11.10;39.20
73322;DHT22;61549;37.044;22.128;2023-02-10T06:02:45;11.00;39.80
73322;DHT22;61549;37.044;22.128;2023-02-10T06:05:11;10.90;39.70
73322;DHT22;61549;37.044;22.128;2023-02-10T06:07:37;10.90;39.30
73322;DHT22;61549;37.044;22.128;2023-02-10T06:10:03;10.80;39.40
73322;DHT22;61549;37.044;22.128;2023-02-10T06:12:28;10.70;39.70
73322;DHT22;61549;37.044;22.128;2023-02-10T06:14:54;10.90;39.90
73322;DHT22;61549;37.044;22.128;2023-02-10T06:17:20;10.90;39.90
73322;DHT22;61549;37.044;22.128;2023-02-10T06:19:46;10.90;40.10
73322;DHT22;61549;37.044;22.128;2023-02-10T06:22:12;11.00;40.20
73322;DHT22;61549;37.044;22.128;2023-02-10T06:24:38;11.10;40.20
73322;DHT22;61549;37.044;22.128;2023-02-10T06:27:04;11.10;39.50
73322;DHT22;61549;37.044;22.128;2023-02-10T06:29:31;11.30;40.50
73322;DHT22;61549;37.044;22.128;2023-02-10T06:31:56;11.30;39.30
73322;DHT22;61549;37.044;22.128;2023-02-10T06:34:22;11.30;38.80
73322;DHT22;61549;37.044;22.128;2023-02-10T06:36:48;11.40;38.00
73322;DHT22;61549;37.044;22.128;2023-02-10T06:39:14;11.70;38.30
73322;DHT22;61549;37.044;22.128;2023-02-10T06:41:40;12.00;37.60
73322;DHT22;61549;37.044;22.128;2023-02-10T06:44:06;12.30;37.50
73322;DHT22;61549;37.044;22.128;2023-02-10T06:46:32;12.40;35.60
73322;DHT22;61549;37.044;22.128;2023-02-10T06:48:58;12.40;35.80
73322;DHT22;61549;37.044;22.128;2023-02-10T06:51:25;12.50;35.40
73322;DHT22;61549;37.044;22.128;2023-02-10T06:53:51;12.50;36.00
73322;DHT22;61549;37.044;22.128;2023-02-10T06:56:17;12.70;36.40
73322;DHT22;61549;37.044;22.128;2023-02-10T06:58:45;12.60;35.00
73322;DHT22;61549;37.044;22.128;2023-02-10T07:01:15;12.80;35.50
73322;DHT22;61549;37.044;22.128;2023-02-10T07:03:43;12.90;34.70
73322;DHT22;61549;37.044;22.128;2023-02-10T07:06:09;13.10;34.30
73322;DHT22;61549;37.044;22.128;2023-02-10T07:08:35;13.20;34.20
73322;DHT22;61549;37.044;22.128;2023-02-10T07:11:02;13.40;34.00
73322;DHT22;61549;37.044;22.128;2023-02-10T07:13:28;13.70;34.00
73322;DHT22;61549;37.044;22.128;2023-02-10T07:15:54;13.80;32.80
73322;DHT22;61549;37.044;22.128;2023-02-10T07:18:19;13.90;32.40
73322;DHT22;61549;37.044;22.128;2023-02-10T07:20:45;14.00;32.40
73322;DHT22;61549;37.044;22.128;2023-02-10T07:23:11;14.10;32.40
73322;DHT22;61549;37.044;22.128;2023-02-10T07:25:37;14.10;32.30
73322;DHT22;61549;37.044;22.128;2023-02-10T07:28:03;14.30;32.70
73322;DHT22;61549;37.044;22.128;2023-02-10T07:30:29;14.40;32.50
73322;DHT22;61549;37.044;22.128;2023-02-10T07:32:55;14.30;32.40
73322;DHT22;61549;37.044;22.128;2023-02-10T07:35:21;14.40;32.00
73322;DHT22;61549;37.044;22.128;2023-02-10T07:37:48;14.60;31.70
73322;DHT22;61549;37.044;22.128;2023-02-10T07:40:13;14.80;32.00
73322;DHT22;61549;37.044;22.128;2023-02-10T07:42:39;14.80;31.60
73322;DHT22;61549;37.044;22.128;2023-02-10T07:45:05;14.70;31.20
73322;DHT22;61549;37.044;22.128;2023-02-10T07:47:31;14.70;31.20
73322;DHT22;61549;37.044;22.128;2023-02-10T07:49:57;14.70;31.70
73322;DHT22;61549;37.044;22.128;2023-02-10T07:52:23;14.70;30.70
73322;DHT22;61549;37.044;22.128;2023-02-10T07:54:49;14.70;30.70
73322;DHT22;61549;37.044;22.128;2023-02-10T07:57:23;14.70;30.60
73322;DHT22;61549;37.044;22.128;2023-02-10T07:59:49;14.70;31.10
73322;DHT22;61549;37.044;22.128;2023-02-10T08:02:15;14.70;31.00
73322;DHT22;61549;37.044;22.128;2023-02-10T08:04:41;14.90;30.60
73322;DHT22;61549;37.044;22.128;2023-02-10T08:07:06;14.90;31.00
73322;DHT22;61549;37.044;22.128;2023-02-10T08:09:32;14.90;30.70
73322;DHT22;61549;37.044;22.128;2023-02-10T08:11:58;15.10;31.50
73322;DHT22;61549;37.044;22.128;2023-02-10T08:14:24;15.40;31.30
73322;DHT22;61549;37.044;22.128;2023-02-10T08:16:50;15.60;30.80
73322;DHT22;61549;37.044;22.128;2023-02-10T08:19:16;15.60;30.70
73322;DHT22;61549;37.044;22.128;2023-02-10T08:21:41;15.60;31.70
73322;DHT22;61549;37.044;22.128;2023-02-10T08:24:08;15.60;31.50
73322;DHT22;61549;37.044;22.128;2023-02-10T08:26:34;15.60;31.50
73322;DHT22;61549;37.044;22.128;2023-02-10T08:29:00;15.70;31.60
73322;DHT22;61549;37.044;22.128;2023-02-10T08:31:27;15.80;31.70
73322;DHT22;61549;37.044;22.128;2023-02-10T08:33:53;16.00;31.80
73322;DHT22;61549;37.044;22.128;2023-02-10T08:36:20;16.20;31.30
73322;DHT22;61549;37.044;22.128;2023-02-10T08:38:47;16.10;30.70
73322;DHT22;61549;37.044;22.128;2023-02-10T08:41:14;16.00;31.60
73322;DHT22;61549;37.044;22.128;2023-02-10T08:43:40;16.10;30.90
73322;DHT22;61549;37.044;22.128;2023-02-10T08:46:06;16.30;31.20
73322;DHT22;61549;37.044;22.128;2023-02-10T08:48:32;16.40;30.40
73322;DHT22;61549;37.044;22.128;2023-02-10T08:50:58;16.30;29.90
73322;DHT22;61549;37.044;22.128;2023-02-10T08:53:24;15.90;29.80
73322;DHT22;61549;37.044;22.128;2023-02-10T08:55:58;15.60;30.30
73322;DHT22;61549;37.044;22.128;2023-02-10T08:58:25;15.30;30.50
73322;DHT22;61549;37.044;22.128;2023-02-10T09:00:51;15.00;31.00
73322;DHT22;61549;37.044;22.128;2023-02-10T09:03:16;14.90;31.50
73322;DHT22;61549;37.044;22.128;2023-02-10T09:05:42;15.10;31.70
73322;DHT22;61549;37.044;22.128;2023-02-10T09:08:12;15.20;31.40
73322;DHT22;61549;37.044;22.128;2023-02-10T09:10:42;15.20;31.10
73322;DHT22;61549;37.044;22.128;2023-02-10T09:13:08;15.20;30.70
73322;DHT22;61549;37.044;22.128;2023-02-10T09:15:39;15.00;30.80
73322;DHT22;61549;37.044;22.128;2023-02-10T09:18:07;15.00;31.30
73322;DHT22;61549;37.044;22.128;2023-02-10T09:20:34;15.10;31.30
73322;DHT22;61549;37.044;22.128;2023-02-10T09:23:00;15.20;31.10
73322;DHT22;61549;37.044;22.128;2023-02-10T09:25:26;15.30;31.20
73322;DHT22;61549;37.044;22.128;2023-02-10T09:27:52;15.60;30.90
73322;DHT22;61549;37.044;22.128;2023-02-10T09:30:20;15.80;30.40
73322;DHT22;61549;37.044;22.128;2023-02-10T09:32:46;15.80;30.70
73322;DHT22;61549;37.044;22.128;2023-02-10T09:35:12;15.80;30.70
73322;DHT22;61549;37.044;22.128;2023-02-10T09:37:38;15.60;30.40
73322;DHT22;61549;37.044;22.128;2023-02-10T09:40:04;15.90;30.60
73322;DHT22;61549;37.044;22.128;2023-02-10T09:43:11;16.00;30.60
73322;DHT22;61549;37.044;22.128;2023-02-10T09:45:29;16.20;30.30
73322;DHT22;61549;37.044;22.128;2023-02-10T09:54:06;16.90;30.10
73322;DHT22;61549;37.044;22.128;2023-02-10T09:56:33;17.00;29.90
73322;DHT22;61549;37.044;22.128;2023-02-10T09:58:59;17.20;29.90
73322;DHT22;61549;37.044;22.128;2023-02-10T10:01:30;17.20;30.30
73322;DHT22;61549;37.044;22.128;2023-02-10T10:04:04;17.30;30.50
73322;DHT22;61549;37.044;22.128;2023-02-10T10:06:56;17.40;29.50
73322;DHT22;61549;37.044;22.128;2023-02-10T10:09:38;17.40;29.70
73322;DHT22;61549;37.044;22.128;2023-02-10T10:12:09;17.50;29.60
73322;DHT22;61549;37.044;22.128;2023-02-10T10:14:39;17.60;29.60
73322;DHT22;61549;37.044;22.128;2023-02-10T10:17:43;17.50;30.10
73322;DHT22;61549;37.044;22.128;2023-02-10T10:23:15;17.50;30.10
73322;DHT22;61549;37.044;22.128;2023-02-10T10:28:59;17.40;30.10
73322;DHT22;61549;37.044;22.128;2023-02-10T10:31:30;17.30;30.20
73322;DHT22;61549;37.044;22.128;2023-02-10T10:36:39;17.10;29.70
73322;DHT22;61549;37.044;22.128;2023-02-10T10:39:13;16.90;30.10
73322;DHT22;61549;37.044;22.128;2023-02-10T10:41:40;17.00;31.00
73322;DHT22;61549;37.044;22.128;2023-02-10T10:44:10;17.10;30.40
73322;DHT22;61549;37.044;22.128;2023-02-10T10:49:35;17.50;30.30
73322;DHT22;61549;37.044;22.128;2023-02-10T10:52:02;17.90;30.90
73322;DHT22;61549;37.044;22.128;2023-02-10T10:54:28;18.20;30.50
73322;DHT22;61549;37.044;22.128;2023-02-10T10:57:00;18.40;29.40
73322;DHT22;61549;37.044;22.128;2023-02-10T10:59:37;18.50;29.10
73322;DHT22;61549;37.044;22.128;2023-02-10T11:02:17;18.40;29.60
73322;DHT22;61549;37.044;22.128;2023-02-10T11:04:44;18.60;30.10
73322;DHT22;61549;37.044;22.128;2023-02-10T11:07:16;18.70;29.50
73322;DHT22;61549;37.044;22.128;2023-02-10T11:09:50;18.90;29.60
73322;DHT22;61549;37.044;22.128;2023-02-10T11:12:34;19.00;30.00
73322;DHT22;61549;37.044;22.128;2023-02-10T11:15:19;18.90;29.70
73322;DHT22;61549;37.044;22.128;2023-02-10T11:17:49;18.80;30.00
73322;DHT22;61549;37.044;22.128;2023-02-10T11:22:43;18.70;30.10
73322;DHT22;61549;37.044;22.128;2023-02-10T11:25:41;18.80;29.70
73322;DHT22;61549;37.044;22.128;2023-02-10T11:28:19;18.60;29.30
73322;DHT22;61549;37.044;22.128;2023-02-10T11:30:53;18.80;29.90
73322;DHT22;61549;37.044;22.128;2023-02-10T11:33:23;18.90;29.50
73322;DHT22;61549;37.044;22.128;2023-02-10T11:35:59;19.00;29.80
73322;DHT22;61549;37.044;22.128;2023-02-10T11:38:26;18.90;29.20
73322;DHT22;61549;37.044;22.128;2023-02-10T11:41:01;18.90;30.00
73322;DHT22;61549;37.044;22.128;2023-02-10T11:43:42;18.70;29.60
73322;DHT22;61549;37.044;22.128;2023-02-10T11:46:28;18.70;30.30
73322;DHT22;61549;37.044;22.128;2023-02-10T11:48:58;18.70;30.40
73322;DHT22;61549;37.044;22.128;2023-02-10T11:51:25;18.50;29.60
73322;DHT22;61549;37.044;22.128;2023-02-10T11:53:51;18.30;30.10
73322;DHT22;61549;37.044;22.128;2023-02-10T12:08:24;18.90;29.80
73322;DHT22;61549;37.044;22.128;2023-02-10T12:17:24;19.10;29.60
73322;DHT22;61549;37.044;22.128;2023-02-10T12:34:03;17.40;31.20
73322;DHT22;61549;37.044;22.128;2023-02-10T12:37:05;17.40;31.90
73322;DHT22;61549;37.044;22.128;2023-02-10T12:40:22;17.60;31.50
73322;DHT22;61549;37.044;22.128;2023-02-10T12:44:53;17.30;32.00
73322;DHT22;61549;37.044;22.128;2023-02-10T12:52:50;17.30;31.80
73322;DHT22;61549;37.044;22.128;2023-02-10T12:55:23;17.30;32.50
73322;DHT22;61549;37.044;22.128;2023-02-10T13:00:27;17.00;32.00
73322;DHT22;61549;37.044;22.128;2023-02-10T13:03:02;16.80;32.70
73322;DHT22;61549;37.044;22.128;2023-02-10T13:05:48;16.70;33.20
73322;DHT22;61549;37.044;22.128;2023-02-10T13:08:38;16.70;32.90
73322;DHT22;61549;37.044;22.128;2023-02-10T13:11:22;16.70;32.80
73322;DHT22;61549;37.044;22.128;2023-02-10T13:13:49;16.80;33.00
73322;DHT22;61549;37.044;22.128;2023-02-10T13:16:18;16.80;32.90
73322;DHT22;61549;37.044;22.128;2023-02-10T13:24:39;16.90;32.70
73322;DHT22;61549;37.044;22.128;2023-02-10T13:28:13;17.10;32.50
73322;DHT22;61549;37.044;22.128;2023-02-10T13:30:59;16.80;31.20
73322;DHT22;61549;37.044;22.128;2023-02-10T13:33:45;16.80;32.70
73322;DHT22;61549;37.044;22.128;2023-02-10T13:36:17;16.80;31.90
73322;DHT22;61549;37.044;22.128;2023-02-10T13:39:02;16.60;31.50
73322;DHT22;61549;37.044;22.128;2023-02-10T13:41:35;16.70;32.20
73322;DHT22;61549;37.044;22.128;2023-02-10T13:44:28;16.60;32.30
73322;DHT22;61549;37.044;22.128;2023-02-10T13:47:12;16.80;32.50
73322;DHT22;61549;37.044;22.128;2023-02-10T13:50:04;16.90;31.70
73322;DHT22;61549;37.044;22.128;2023-02-10T13:52:33;16.80;32.10
73322;DHT22;61549;37.044;22.128;2023-02-10T13:55:26;16.90;32.70
73322;DHT22;61549;37.044;22.128;2023-02-10T13:58:16;16.90;32.40
73322;DHT22;61549;37.044;22.128;2023-02-10T14:00:45;16.90;33.40
73322;DHT22;61549;37.044;22.128;2023-02-10T14:05:50;16.70;33.10
73322;DHT22;61549;37.044;22.128;2023-02-10T14:08:32;16.30;32.60
73322;DHT22;61549;37.044;22.128;2023-02-10T14:13:42;15.90;34.10
73322;DHT22;61549;37.044;22.128;2023-02-10T14:18:44;15.30;34.00
73322;DHT22;61549;37.044;22.128;2023-02-10T14:21:17;15.10;35.00
73322;DHT22;61549;37.044;22.128;2023-02-10T14:23:50;15.10;34.80
73322;DHT22;61549;37.044;22.128;2023-02-10T14:26:29;15.10;34.50
73322;DHT22;61549;37.044;22.128;2023-02-10T14:28:57;15.10;34.40
73322;DHT22;61549;37.044;22.128;2023-02-10T14:31:27;15.00;35.10
73322;DHT22;61549;37.044;22.128;2023-02-10T14:33:56;15.20;34.80
73322;DHT22;61549;37.044;22.128;2023-02-10T14:36:22;15.30;34.70
73322;DHT22;61549;37.044;22.128;2023-02-10T14:38:54;15.30;34.30
73322;DHT22;61549;37.044;22.128;2023-02-10T14:41:24;15.40;34.70
73322;DHT22;61549;37.044;22.128;2023-02-10T14:43:51;15.50;35.20
73322;DHT22;61549;37.044;22.128;2023-02-10T14:46:32;15.30;35.40
73322;DHT22;61549;37.044;22.128;2023-02-10T14:49:08;15.20;35.70
73322;DHT22;61549;37.044;22.128;2023-02-10T14:51:40;15.10;35.90
73322;DHT22;61549;37.044;22.128;2023-02-10T14:54:14;14.90;36.10
73322;DHT22;61549;37.044;22.128;2023-02-10T14:56:49;14.80;36.30
73322;DHT22;61549;37.044;22.128;2023-02-10T14:59:27;14.70;36.20
73322;DHT22;61549;37.044;22.128;2023-02-10T15:01:54;14.50;36.40
73322;DHT22;61549;37.044;22.128;2023-02-10T15:04:26;14.30;36.90
73322;DHT22;61549;37.044;22.128;2023-02-10T15:06:54;14.30;36.50
73322;DHT22;61549;37.044;22.128;2023-02-10T15:09:44;14.20;37.10
73322;DHT22;61549;37.044;22.128;2023-02-10T15:12:11;14.10;37.20
73322;DHT22;61549;37.044;22.128;2023-02-10T15:14:52;14.20;37.20
73322;DHT22;61549;37.044;22.128;2023-02-10T15:17:25;14.10;36.90
73322;DHT22;61549;37.044;22.128;2023-02-10T15:20:00;14.00;36.80
73322;DHT22;61549;37.044;22.128;2023-02-10T15:22:37;13.90;37.10
73322;DHT22;61549;37.044;22.128;2023-02-10T15:25:27;13.80;37.00
73322;DHT22;61549;37.044;22.128;2023-02-10T15:30:47;13.90;37.70
73322;DHT22;61549;37.044;22.128;2023-02-10T15:39:00;13.80;37.70
73322;DHT22;61549;37.044;22.128;2023-02-10T15:41:44;13.80;37.40
73322;DHT22;61549;37.044;22.128;2023-02-10T15:47:17;13.80;37.40
73322;DHT22;61549;37.044;22.128;2023-02-10T15:49:45;13.50;38.00
73322;DHT22;61549;37.044;22.128;2023-02-10T15:52:23;13.40;37.90
73322;DHT22;61549;37.044;22.128;2023-02-10T15:54:50;13.40;37.80
73322;DHT22;61549;37.044;22.128;2023-02-10T15:57:17;13.30;37.80
73322;DHT22;61549;37.044;22.128;2023-02-10T15:59:43;13.40;37.90
73322;DHT22;61549;37.044;22.128;2023-02-10T16:02:12;13.20;37.60
73322;DHT22;61549;37.044;22.128;2023-02-10T16:04:38;13.20;37.40
73322;DHT22;61549;37.044;22.128;2023-02-10T16:07:05;13.10;37.50
73322;DHT22;61549;37.044;22.128;2023-02-10T16:09:32;13.00;38.00
73322;DHT22;61549;37.044;22.128;2023-02-10T16:11:59;13.00;38.40
73322;DHT22;61549;37.044;22.128;2023-02-10T16:14:25;12.80;37.80
73322;DHT22;61549;37.044;22.128;2023-02-10T16:16:54;12.80;37.90
73322;DHT22;61549;37.044;22.128;2023-02-10T16:19:23;12.70;38.80
73322;DHT22;61549;37.044;22.128;2023-02-10T16:21:50;12.80;38.50
73322;DHT22;61549;37.044;22.128;2023-02-10T16:24:22;12.80;38.80
73322;DHT22;61549;37.044;22.128;2023-02-10T16:26:48;12.90;38.70
73322;DHT22;61549;37.044;22.128;2023-02-10T16:29:26;12.80;38.70
73322;DHT22;61549;37.044;22.128;2023-02-10T16:31:53;12.80;38.70
73322;DHT22;61549;37.044;22.128;2023-02-10T16:34:19;12.80;38.70
73322;DHT22;61549;37.044;22.128;2023-02-10T16:36:45;12.70;39.00
73322;DHT22;61549;37.044;22.128;2023-02-10T16:39:16;12.70;38.90
73322;DHT22;61549;37.044;22.128;2023-02-10T16:41:44;12.70;38.70
73322;DHT22;61549;37.044;22.128;2023-02-10T16:44:11;12.50;38.70
73322;DHT22;61549;37.044;22.128;2023-02-10T16:46:37;12.50;39.20
73322;DHT22;61549;37.044;22.128;2023-02-10T16:49:04;12.40;39.10
73322;DHT22;61549;37.044;22.128;2023-02-10T16:51:30;12.40;39.00
73322;DHT22;61549;37.044;22.128;2023-02-10T16:53:56;12.30;39.60
73322;DHT22;61549;37.044;22.128;2023-02-10T16:56:22;12.30;39.80
73322;DHT22;61549;37.044;22.128;2023-02-10T16:58:49;12.50;39.20
73322;DHT22;61549;37.044;22.128;2023-02-10T17:01:16;12.40;39.10
73322;DHT22;61549;37.044;22.128;2023-02-10T17:03:43;12.40;39.20
73322;DHT22;61549;37.044;22.128;2023-02-10T17:06:16;12.50;39.10
73322;DHT22;61549;37.044;22.128;2023-02-10T17:08:43;12.40;39.00
73322;DHT22;61549;37.044;22.128;2023-02-10T17:11:09;12.20;39.50
73322;DHT22;61549;37.044;22.128;2023-02-10T17:13:35;12.40;39.20
73322;DHT22;61549;37.044;22.128;2023-02-10T17:16:02;12.50;39.10
73322;DHT22;61549;37.044;22.128;2023-02-10T17:18:28;12.30;38.80
73322;DHT22;61549;37.044;22.128;2023-02-10T17:20:53;12.30;39.50
73322;DHT22;61549;37.044;22.128;2023-02-10T17:23:19;12.20;39.60
73322;DHT22;61549;37.044;22.128;2023-02-10T17:25:46;12.10;39.70
73322;DHT22;61549;37.044;22.128;2023-02-10T17:28:14;11.90;40.00
73322;DHT22;61549;37.044;22.128;2023-02-10T17:30:42;11.90;40.20
73322;DHT22;61549;37.044;22.128;2023-02-10T17:33:25;11.90;40.10
73322;DHT22;61549;37.044;22.128;2023-02-10T17:35:51;12.20;39.80